sensor_id;sensor_type;location;lat;lon;timestamp;pressure;altitude;pressure_sealevel;temperature;humidity
48402;BME280;65988;52.422;16.746;2024-01-30T13:44:05;101429.28;;;11.86;51.12
48402;BME280;65988;52.422;16.746;2024-01-30T13:46:52;101520.31;;;10.74;53.25
48402;BME280;65988;52.422;16.746;2024-01-30T13:49:36;101622.03;;;10.83;53.35
48402;BME280;65988;52.422;16.746;2024-01-30T13:55:25;101767.00;;;10.73;55.58
48402;BME280;65988;52.422;16.746;2024-01-30T14:00:48;101867.97;;;10.35;57.29
48402;BME280;65988;52.422;16.746;2024-01-30T14:03:30;101935.16;;;10.19;58.26
48402;BME280;65988;52.422;16.746;2024-01-30T14:06:07;101895.47;;;9.66;58.97
48402;BME280;65988;52.422;16.746;2024-01-30T14:09:03;101946.22;;;9.55;59.98
48402;BME280;65988;52.422;16.746;2024-01-30T14:11:29;101850.63;;;9.30;59.86
48402;BME280;65988;52.422;16.746;2024-01-30T14:14:20;101756.84;;;9.45;59.34
48402;BME280;65988;52.422;16.746;2024-01-30T14:16:45;101676.81;;;9.45;58.85
48402;BME280;65988;52.422;16.746;2024-01-30T14:19:13;101695.75;;;9.35;59.04
48402;BME280;65988;52.422;16.746;2024-01-30T14:21:47;101727.59;;;9.68;58.73
48402;BME280;65988;52.422;16.746;2024-01-30T14:24:48;101700.91;;;9.53;59.28
48402;BME280;65988;52.422;16.746;2024-01-30T14:27:30;101641.53;;;9.36;58.98
48402;BME280;65988;52.422;16.746;2024-01-30T14:30:03;101643.22;;;9.67;58.71
48402;BME280;65988;52.422;16.746;2024-01-30T15:00:08;101758.25;;;8.41;62.22
48402;BME280;65988;52.422;16.746;2024-01-30T15:02:44;101795.00;;;8.11;63.17
48402;BME280;65988;52.422;16.746;2024-01-30T15:05:50;101846.31;;;7.83;64.52
48402;BME280;65988;52.422;16.746;2024-01-30T15:08:18;101897.81;;;7.84;65.59
48402;BME280;65988;52.422;16.746;2024-01-30T15:10:49;101839.78;;;7.30;66.29
48402;BME280;65988;52.422;16.746;2024-01-30T15:13:25;101817.25;;;7.10;66.71
48402;BME280;65988;52.422;16.746;2024-01-30T15:22:22;101795.38;;;7.49;67.12
48402;BME280;65988;52.422;16.746;2024-01-30T15:24:58;101819.38;;;7.47;67.24
48402;BME280;65988;52.422;16.746;2024-01-30T15:27:28;101775.16;;;7.03;67.70
48402;BME280;65988;52.422;16.746;2024-01-30T15:45:05;101745.38;;;5.88;71.07
48402;BME280;65988;52.422;16.746;2024-01-30T15:47:45;101816.78;;;6.09;71.98
48402;BME280;65988;52.422;16.746;2024-01-30T15:50:29;101777.34;;;6.07;71.93
48402;BME280;65988;52.422;16.746;2024-01-30T15:53:06;101773.88;;;6.02;72.48
48402;BME280;65988;52.422;16.746;2024-01-30T15:55:39;101716.53;;;5.49;72.80
48402;BME280;65988;52.422;16.746;2024-01-30T16:01:23;101727.88;;;5.62;73.90
48402;BME280;65988;52.422;16.746;2024-01-30T16:09:40;101709.63;;;6.00;74.16
48402;BME280;65988;52.422;16.746;2024-01-30T16:15:55;101615.19;;;5.79;73.06
48402;BME280;65988;52.422;16.746;2024-01-30T16:18:55;101684.63;;;5.88;73.77
48402;BME280;65988;52.422;16.746;2024-01-30T16:21:46;101646.28;;;5.41;74.39
48402;BME280;65988;52.422;16.746;2024-01-30T16:24:25;101673.09;;;5.60;74.45
48402;BME280;65988;52.422;16.746;2024-01-30T16:50:21;101563.69;;;5.05;74.49
48402;BME280;65988;52.422;16.746;2024-01-30T16:53:02;101608.50;;;5.30;74.79
48402;BME280;65988;52.422;16.746;2024-01-30T17:21:39;101519.75;;;5.43;73.89
48402;BME280;65988;52.422;16.746;2024-01-30T17:30:58;101516.97;;;5.95;72.82
